sensor_id;sensor_type;location;lat;lon;timestamp;temperature;humidity
24452;DHT22;13350;50.984;5.822;2023-02-28T00:00:11;-1.10;99.90
24452;DHT22;13350;50.984;5.822;2023-02-28T00:02:41;-1.10;99.90
24452;DHT22;13350;50.984;5.822;2023-02-28T00:05:11;-1.10;99.90
24452;DHT22;13350;50.984;5.822;2023-02-28T00:07:38;-1.20;99.90
24452;DHT22;13350;50.984;5.822;2023-02-28T00:10:07;-1.10;99.90
24452;DHT22;13350;50.984;5.822;2023-02-28T00:12:35;-1.10;99.90
24452;DHT22;13350;50.984;5.822;2023-02-28T00:15:03;-1.10;99.90
24452;DHT22;13350;50.984;5.822;2023-02-28T00:17:32;-1.00;99.90
24452;DHT22;13350;50.984;5.822;2023-02-28T00:20:01;-0.90;99.90
24452;DHT22;13350;50.984;5.822;2023-02-28T00:22:39;-0.80;99.90
24452;DHT22;13350;50.984;5.822;2023-02-28T00:25:07;-0.80;99.90
24452;DHT22;13350;50.984;5.822;2023-02-28T00:27:35;-0.80;99.90
24452;DHT22;13350;50.984;5.822;2023-02-28T00:30:03;-0.80;99.90
24452;DHT22;13350;50.984;5.822;2023-02-28T00:32:30;-0.80;99.90
24452;DHT22;13350;50.984;5.822;2023-02-28T00:34:57;-0.80;99.90
24452;DHT22;13350;50.984;5.822;2023-02-28T00:37:26;-0.90;99.90
24452;DHT22;13350;50.984;5.822;2023-02-28T00:39:53;-0.90;99.90
24452;DHT22;13350;50.984;5.822;2023-02-28T00:42:20;-1.00;99.90
24452;DHT22;13350;50.984;5.822;2023-02-28T00:44:47;-1.10;99.90
24452;DHT22;13350;50.984;5.822;2023-02-28T00:47:14;-1.10;99.90
24452;DHT22;13350;50.984;5.822;2023-02-28T00:49:42;-1.10;99.90
24452;DHT22;13350;50.984;5.822;2023-02-28T00:52:10;-1.20;99.90
24452;DHT22;13350;50.984;5.822;2023-02-28T00:54:38;-1.20;99.90
24452;DHT22;13350;50.984;5.822;2023-02-28T00:57:06;-1.30;99.90
24452;DHT22;13350;50.984;5.822;2023-02-28T00:59:33;-1.30;99.90
24452;DHT22;13350;50.984;5.822;2023-02-28T01:02:00;-1.40;99.90
24452;DHT22;13350;50.984;5.822;2023-02-28T01:04:27;-1.50;99.90
24452;DHT22;13350;50.984;5.822;2023-02-28T01:06:54;-1.50;99.90
24452;DHT22;13350;50.984;5.822;2023-02-28T01:09:21;-1.60;99.90
24452;DHT22;13350;50.984;5.822;2023-02-28T01:11:50;-1.60;99.90
24452;DHT22;13350;50.984;5.822;2023-02-28T01:14:17;-1.60;99.90
24452;DHT22;13350;50.984;5.822;2023-02-28T01:16:45;-1.70;99.90
24452;DHT22;13350;50.984;5.822;2023-02-28T01:19:12;-1.80;99.90
24452;DHT22;13350;50.984;5.822;2023-02-28T01:21:39;-1.70;99.90
24452;DHT22;13350;50.984;5.822;2023-02-28T01:24:07;-1.70;99.90
24452;DHT22;13350;50.984;5.822;2023-02-28T01:26:34;-1.70;99.90
24452;DHT22;13350;50.984;5.822;2023-02-28T01:29:03;-1.70;99.90
24452;DHT22;13350;50.984;5.822;2023-02-28T01:31:30;-1.80;99.90
24452;DHT22;13350;50.984;5.822;2023-02-28T01:33:57;-1.80;99.90
24452;DHT22;13350;50.984;5.822;2023-02-28T01:36:25;-1.80;99.90
24452;DHT22;13350;50.984;5.822;2023-02-28T01:38:52;-1.80;99.90
24452;DHT22;13350;50.984;5.822;2023-02-28T01:41:21;-1.80;99.90
24452;DHT22;13350;50.984;5.822;2023-02-28T01:44:02;-1.80;99.90
24452;DHT22;13350;50.984;5.822;2023-02-28T01:46:31;-1.90;99.90
24452;DHT22;13350;50.984;5.822;2023-02-28T01:49:04;-2.00;99.90
24452;DHT22;13350;50.984;5.822;2023-02-28T01:51:35;-2.00;99.90
24452;DHT22;13350;50.984;5.822;2023-02-28T01:54:06;-2.00;99.90
24452;DHT22;13350;50.984;5.822;2023-02-28T01:56:41;-2.10;99.90
24452;DHT22;13350;50.984;5.822;2023-02-28T01:59:13;-2.10;99.90
24452;DHT22;13350;50.984;5.822;2023-02-28T02:01:41;-2.10;99.90
24452;DHT22;13350;50.984;5.822;2023-02-28T02:04:09;-2.20;99.90
24452;DHT22;13350;50.984;5.822;2023-02-28T02:06:39;-2.20;99.90
24452;DHT22;13350;50.984;5.822;2023-02-28T02:09:07;-2.20;99.90
24452;DHT22;13350;50.984;5.822;2023-02-28T02:11:35;-2.10;99.90
24452;DHT22;13350;50.984;5.822;2023-02-28T02:14:35;-2.20;99.90
24452;DHT22;13350;50.984;5.822;2023-02-28T02:17:18;-2.20;99.90
24452;DHT22;13350;50.984;5.822;2023-02-28T02:20:32;-2.40;99.90
24452;DHT22;13350;50.984;5.822;2023-02-28T02:23:27;-2.50;99.90
24452;DHT22;13350;50.984;5.822;2023-02-28T02:26:09;-2.50;99.90
24452;DHT22;13350;50.984;5.822;2023-02-28T02:34:56;-2.70;99.90
24452;DHT22;13350;50.984;5.822;2023-02-28T02:37:31;-2.80;99.90
24452;DHT22;13350;50.984;5.822;2023-02-28T02:40:10;-2.90;99.90
24452;DHT22;13350;50.984;5.822;2023-02-28T02:42:43;-3.20;99.90
24452;DHT22;13350;50.984;5.822;2023-02-28T02:45:15;-3.40;99.90
24452;DHT22;13350;50.984;5.822;2023-02-28T02:47:45;-3.40;99.90
24452;DHT22;13350;50.984;5.822;2023-02-28T02:50:16;-3.30;99.90
24452;DHT22;13350;50.984;5.822;2023-02-28T02:52:51;-3.40;99.90
24452;DHT22;13350;50.984;5.822;2023-02-28T02:55:20;-3.50;99.90
24452;DHT22;13350;50.984;5.822;2023-02-28T02:57:51;-3.50;99.90
24452;DHT22;13350;50.984;5.822;2023-02-28T03:00:23;-3.40;99.90
24452;DHT22;13350;50.984;5.822;2023-02-28T03:02:52;-3.20;99.90
24452;DHT22;13350;50.984;5.822;2023-02-28T03:05:26;-3.10;99.90
24452;DHT22;13350;50.984;5.822;2023-02-28T03:07:54;-3.00;99.90
24452;DHT22;13350;50.984;5.822;2023-02-28T03:10:33;-3.00;99.90
24452;DHT22;13350;50.984;5.822;2023-02-28T03:13:21;-3.00;99.90
24452;DHT22;13350;50.984;5.822;2023-02-28T03:16:16;-3.00;99.90
24452;DHT22;13350;50.984;5.822;2023-02-28T03:18:53;-2.90;99.90
24452;DHT22;13350;50.984;5.822;2023-02-28T03:21:28;-2.80;99.90
24452;DHT22;13350;50.984;5.822;2023-02-28T03:24:04;-2.70;99.90
24452;DHT22;13350;50.984;5.822;2023-02-28T03:26:36;-2.60;99.90
24452;DHT22;13350;50.984;5.822;2023-02-28T03:29:09;-2.40;99.90
24452;DHT22;13350;50.984;5.822;2023-02-28T03:31:44;-2.40;99.90
24452;DHT22;13350;50.984;5.822;2023-02-28T03:34:19;-2.40;99.90
24452;DHT22;13350;50.984;5.822;2023-02-28T03:36:53;-2.40;99.90
24452;DHT22;13350;50.984;5.822;2023-02-28T03:39:26;-2.40;99.90
24452;DHT22;13350;50.984;5.822;2023-02-28T03:41:58;-2.40;99.90
24452;DHT22;13350;50.984;5.822;2023-02-28T03:44:29;-2.30;99.90
24452;DHT22;13350;50.984;5.822;2023-02-28T03:47:00;-2.20;99.90
24452;DHT22;13350;50.984;5.822;2023-02-28T03:49:31;-2.00;99.90
24452;DHT22;13350;50.984;5.822;2023-02-28T03:52:02;-1.90;99.90
24452;DHT22;13350;50.984;5.822;2023-02-28T03:54:32;-1.80;99.90
24452;DHT22;13350;50.984;5.822;2023-02-28T03:57:05;-1.80;99.90
24452;DHT22;13350;50.984;5.822;2023-02-28T03:59:37;-1.70;99.90
24452;DHT22;13350;50.984;5.822;2023-02-28T04:02:07;-1.70;99.90
24452;DHT22;13350;50.984;5.822;2023-02-28T04:04:35;-1.80;99.90
24452;DHT22;13350;50.984;5.822;2023-02-28T04:07:05;-1.90;99.90
24452;DHT22;13350;50.984;5.822;2023-02-28T04:09:33;-1.90;99.90
24452;DHT22;13350;50.984;5.822;2023-02-28T04:12:00;-2.00;99.90
24452;DHT22;13350;50.984;5.822;2023-02-28T04:14:28;-2.00;99.90
24452;DHT22;13350;50.984;5.822;2023-02-28T04:16:55;-2.10;99.90
24452;DHT22;13350;50.984;5.822;2023-02-28T04:19:22;-2.10;99.90
24452;DHT22;13350;50.984;5.822;2023-02-28T04:21:51;-2.20;99.90
24452;DHT22;13350;50.984;5.822;2023-02-28T04:24:21;-2.30;99.90
24452;DHT22;13350;50.984;5.822;2023-02-28T04:26:50;-2.30;99.90
24452;DHT22;13350;50.984;5.822;2023-02-28T04:29:20;-2.40;99.90
24452;DHT22;13350;50.984;5.822;2023-02-28T04:31:48;-2.40;99.90
24452;DHT22;13350;50.984;5.822;2023-02-28T04:34:16;-2.50;99.90
24452;DHT22;13350;50.984;5.822;2023-02-28T04:36:44;-2.50;99.90
24452;DHT22;13350;50.984;5.822;2023-02-28T04:39:14;-2.60;99.90
24452;DHT22;13350;50.984;5.822;2023-02-28T04:41:45;-2.60;99.90
24452;DHT22;13350;50.984;5.822;2023-02-28T04:44:13;-2.50;99.90
24452;DHT22;13350;50.984;5.822;2023-02-28T04:46:40;-2.50;99.90
24452;DHT22;13350;50.984;5.822;2023-02-28T04:49:08;-2.60;99.90
24452;DHT22;13350;50.984;5.822;2023-02-28T04:51:37;-2.60;99.90
24452;DHT22;13350;50.984;5.822;2023-02-28T04:54:04;-2.70;99.90
24452;DHT22;13350;50.984;5.822;2023-02-28T04:56:32;-2.70;99.90
24452;DHT22;13350;50.984;5.822;2023-02-28T04:59:01;-2.70;99.90
24452;DHT22;13350;50.984;5.822;2023-02-28T05:01:29;-2.70;99.90
24452;DHT22;13350;50.984;5.822;2023-02-28T05:03:59;-2.80;99.90
24452;DHT22;13350;50.984;5.822;2023-02-28T05:06:31;-2.90;99.90
24452;DHT22;13350;50.984;5.822;2023-02-28T05:08:59;-2.80;99.90
24452;DHT22;13350;50.984;5.822;2023-02-28T05:11:28;-2.70;99.90
24452;DHT22;13350;50.984;5.822;2023-02-28T05:14:02;-2.70;99.90
24452;DHT22;13350;50.984;5.822;2023-02-28T05:16:29;-2.80;99.90
24452;DHT22;13350;50.984;5.822;2023-02-28T05:18:57;-2.80;99.90
24452;DHT22;13350;50.984;5.822;2023-02-28T05:21:27;-2.70;99.90
24452;DHT22;13350;50.984;5.822;2023-02-28T05:23:55;-2.70;99.90
24452;DHT22;13350;50.984;5.822;2023-02-28T05:26:23;-2.60;99.90
24452;DHT22;13350;50.984;5.822;2023-02-28T05:28:50;-2.60;99.90
24452;DHT22;13350;50.984;5.822;2023-02-28T05:31:19;-2.60;99.90
24452;DHT22;13350;50.984;5.822;2023-02-28T05:33:46;-2.70;99.90
24452;DHT22;13350;50.984;5.822;2023-02-28T05:36:14;-2.80;99.90
24452;DHT22;13350;50.984;5.822;2023-02-28T05:38:41;-2.90;99.90
24452;DHT22;13350;50.984;5.822;2023-02-28T05:41:09;-3.10;99.90
24452;DHT22;13350;50.984;5.822;2023-02-28T05:43:37;-3.10;99.90
24452;DHT22;13350;50.984;5.822;2023-02-28T05:46:05;-3.20;99.90
24452;DHT22;13350;50.984;5.822;2023-02-28T05:48:36;-3.20;99.90
24452;DHT22;13350;50.984;5.822;2023-02-28T05:51:04;-3.10;99.90
24452;DHT22;13350;50.984;5.822;2023-02-28T05:53:32;-3.20;99.90
24452;DHT22;13350;50.984;5.822;2023-02-28T05:55:59;-3.20;99.90
24452;DHT22;13350;50.984;5.822;2023-02-28T05:58:27;-3.20;99.90
24452;DHT22;13350;50.984;5.822;2023-02-28T06:00:57;-3.20;99.90
24452;DHT22;13350;50.984;5.822;2023-02-28T06:03:24;-3.20;99.90
24452;DHT22;13350;50.984;5.822;2023-02-28T06:05:53;-3.00;99.90
24452;DHT22;13350;50.984;5.822;2023-02-28T06:08:21;-3.00;99.90
24452;DHT22;13350;50.984;5.822;2023-02-28T06:10:48;-2.90;99.90
24452;DHT22;13350;50.984;5.822;2023-02-28T06:13:15;-2.90;99.90
24452;DHT22;13350;50.984;5.822;2023-02-28T06:15:42;-2.80;99.90
24452;DHT22;13350;50.984;5.822;2023-02-28T06:18:09;-2.90;99.90
24452;DHT22;13350;50.984;5.822;2023-02-28T06:20:36;-2.90;99.90
24452;DHT22;13350;50.984;5.822;2023-02-28T06:23:05;-2.80;99.90
24452;DHT22;13350;50.984;5.822;2023-02-28T06:25:32;-2.80;99.90
24452;DHT22;13350;50.984;5.822;2023-02-28T06:27:59;-2.70;99.90
24452;DHT22;13350;50.984;5.822;2023-02-28T06:30:27;-2.70;99.90
24452;DHT22;13350;50.984;5.822;2023-02-28T06:32:56;-2.70;99.90
24452;DHT22;13350;50.984;5.822;2023-02-28T06:35:23;-2.70;99.90
24452;DHT22;13350;50.984;5.822;2023-02-28T06:37:52;-2.70;99.90
24452;DHT22;13350;50.984;5.822;2023-02-28T06:40:21;-2.70;99.90
24452;DHT22;13350;50.984;5.822;2023-02-28T06:42:48;-2.80;99.90
24452;DHT22;13350;50.984;5.822;2023-02-28T06:45:15;-2.80;99.90
24452;DHT22;13350;50.984;5.822;2023-02-28T06:47:42;-2.70;99.90
24452;DHT22;13350;50.984;5.822;2023-02-28T06:50:11;-2.80;99.90
24452;DHT22;13350;50.984;5.822;2023-02-28T06:52:38;-2.80;99.90
24452;DHT22;13350;50.984;5.822;2023-02-28T06:55:07;-2.80;99.90
24452;DHT22;13350;50.984;5.822;2023-02-28T06:57:36;-2.90;99.90
24452;DHT22;13350;50.984;5.822;2023-02-28T07:00:06;-2.80;99.90
24452;DHT22;13350;50.984;5.822;2023-02-28T07:02:34;-2.60;99.90
24452;DHT22;13350;50.984;5.822;2023-02-28T07:05:01;-2.50;99.90
24452;DHT22;13350;50.984;5.822;2023-02-28T07:07:28;-2.40;99.90
24452;DHT22;13350;50.984;5.822;2023-02-28T07:09:55;-2.20;99.90
24452;DHT22;13350;50.984;5.822;2023-02-28T07:12:23;-2.20;99.90
24452;DHT22;13350;50.984;5.822;2023-02-28T07:14:51;-2.10;99.90
24452;DHT22;13350;50.984;5.822;2023-02-28T07:17:20;-2.10;99.90
24452;DHT22;13350;50.984;5.822;2023-02-28T07:19:47;-2.00;99.90
24452;DHT22;13350;50.984;5.822;2023-02-28T07:22:14;-2.00;99.90
24452;DHT22;13350;50.984;5.822;2023-02-28T07:24:41;-1.90;99.90
24452;DHT22;13350;50.984;5.822;2023-02-28T07:27:08;-1.80;99.90
24452;DHT22;13350;50.984;5.822;2023-02-28T07:29:36;-1.70;99.90
24452;DHT22;13350;50.984;5.822;2023-02-28T07:32:05;-1.60;99.90
24452;DHT22;13350;50.984;5.822;2023-02-28T07:34:32;-1.60;99.90
24452;DHT22;13350;50.984;5.822;2023-02-28T07:36:59;-1.50;99.90
24452;DHT22;13350;50.984;5.822;2023-02-28T07:39:29;-1.40;99.90
24452;DHT22;13350;50.984;5.822;2023-02-28T07:41:56;-1.20;99.90
24452;DHT22;13350;50.984;5.822;2023-02-28T07:44:25;-1.20;99.90
24452;DHT22;13350;50.984;5.822;2023-02-28T07:46:52;-1.10;99.90
24452;DHT22;13350;50.984;5.822;2023-02-28T07:49:21;-1.10;99.90
24452;DHT22;13350;50.984;5.822;2023-02-28T07:51:48;-1.10;99.90
24452;DHT22;13350;50.984;5.822;2023-02-28T07:54:15;-1.00;99.90
24452;DHT22;13350;50.984;5.822;2023-02-28T07:56:43;-0.90;99.90
24452;DHT22;13350;50.984;5.822;2023-02-28T07:59:10;-0.80;99.90
24452;DHT22;13350;50.984;5.822;2023-02-28T08:01:37;-0.70;99.90
24452;DHT22;13350;50.984;5.822;2023-02-28T08:04:04;-0.70;99.90
24452;DHT22;13350;50.984;5.822;2023-02-28T08:06:33;-0.70;99.90
24452;DHT22;13350;50.984;5.822;2023-02-28T08:09:00;-0.50;99.90
24452;DHT22;13350;50.984;5.822;2023-02-28T08:11:28;-0.30;99.90
24452;DHT22;13350;50.984;5.822;2023-02-28T08:13:55;-0.20;99.90
24452;DHT22;13350;50.984;5.822;2023-02-28T08:16:22;0.00;99.90
24452;DHT22;13350;50.984;5.822;2023-02-28T08:18:50;0.10;99.90
24452;DHT22;13350;50.984;5.822;2023-02-28T08:21:18;0.20;99.90
24452;DHT22;13350;50.984;5.822;2023-02-28T08:23:48;0.30;99.90
24452;DHT22;13350;50.984;5.822;2023-02-28T08:26:16;0.50;99.90
24452;DHT22;13350;50.984;5.822;2023-02-28T08:28:43;0.60;99.90
24452;DHT22;13350;50.984;5.822;2023-02-28T08:31:11;0.90;99.90
24452;DHT22;13350;50.984;5.822;2023-02-28T08:33:39;1.40;99.90
24452;DHT22;13350;50.984;5.822;2023-02-28T08:36:08;1.40;99.90
24452;DHT22;13350;50.984;5.822;2023-02-28T08:38:35;1.40;99.90
24452;DHT22;13350;50.984;5.822;2023-02-28T08:41:06;1.50;99.90
24452;DHT22;13350;50.984;5.822;2023-02-28T08:43:34;1.50;99.90
24452;DHT22;13350;50.984;5.822;2023-02-28T08:46:02;1.40;99.90
24452;DHT22;13350;50.984;5.822;2023-02-28T08:48:31;1.40;99.90
24452;DHT22;13350;50.984;5.822;2023-02-28T08:51:00;1.30;99.90
24452;DHT22;13350;50.984;5.822;2023-02-28T08:53:28;1.40;99.90
24452;DHT22;13350;50.984;5.822;2023-02-28T08:55:59;1.50;99.90
24452;DHT22;13350;50.984;5.822;2023-02-28T08:58:28;1.60;99.90
24452;DHT22;13350;50.984;5.822;2023-02-28T09:00:55;1.60;99.90
24452;DHT22;13350;50.984;5.822;2023-02-28T09:03:23;1.80;99.90
24452;DHT22;13350;50.984;5.822;2023-02-28T09:05:54;1.90;99.90
24452;DHT22;13350;50.984;5.822;2023-02-28T09:08:22;1.90;99.90
24452;DHT22;13350;50.984;5.822;2023-02-28T09:10:49;2.00;99.90
24452;DHT22;13350;50.984;5.822;2023-02-28T09:13:17;2.10;99.90
24452;DHT22;13350;50.984;5.822;2023-02-28T09:15:46;2.20;99.90
24452;DHT22;13350;50.984;5.822;2023-02-28T09:18:14;2.40;99.90
24452;DHT22;13350;50.984;5.822;2023-02-28T09:20:42;2.70;99.90
24452;DHT22;13350;50.984;5.822;2023-02-28T09:23:10;3.20;99.90
24452;DHT22;13350;50.984;5.822;2023-02-28T09:25:40;3.90;99.90
24452;DHT22;13350;50.984;5.822;2023-02-28T09:28:11;4.10;99.90
24452;DHT22;13350;50.984;5.822;2023-02-28T09:30:40;3.90;99.90
24452;DHT22;13350;50.984;5.822;2023-02-28T09:33:08;3.80;99.90
24452;DHT22;13350;50.984;5.822;2023-02-28T09:35:35;4.20;99.90
24452;DHT22;13350;50.984;5.822;2023-02-28T09:38:03;4.80;99.90
24452;DHT22;13350;50.984;5.822;2023-02-28T09:40:31;4.90;99.90
24452;DHT22;13350;50.984;5.822;2023-02-28T09:42:59;5.10;99.90
24452;DHT22;13350;50.984;5.822;2023-02-28T09:45:30;5.40;99.90
24452;DHT22;13350;50.984;5.822;2023-02-28T09:48:01;5.90;99.90
24452;DHT22;13350;50.984;5.822;2023-02-28T09:50:34;5.80;99.90
24452;DHT22;13350;50.984;5.822;2023-02-28T09:53:03;5.70;99.90
24452;DHT22;13350;50.984;5.822;2023-02-28T09:55:37;5.60;99.90
24452;DHT22;13350;50.984;5.822;2023-02-28T09:58:11;5.60;99.30
24452;DHT22;13350;50.984;5.822;2023-02-28T10:00:42;5.40;98.60
24452;DHT22;13350;50.984;5.822;2023-02-28T10:03:26;5.30;98.40
24452;DHT22;13350;50.984;5.822;2023-02-28T10:05:58;5.70;96.20
24452;DHT22;13350;50.984;5.822;2023-02-28T10:08:34;5.70;95.50
24452;DHT22;13350;50.984;5.822;2023-02-28T10:11:11;5.80;95.40
24452;DHT22;13350;50.984;5.822;2023-02-28T10:13:50;6.50;94.70
24452;DHT22;13350;50.984;5.822;2023-02-28T10:16:25;6.10;93.30
24452;DHT22;13350;50.984;5.822;2023-02-28T10:18:57;6.30;93.10
24452;DHT22;13350;50.984;5.822;2023-02-28T10:21:30;6.30;93.60
24452;DHT22;13350;50.984;5.822;2023-02-28T10:24:04;6.50;92.00
24452;DHT22;13350;50.984;5.822;2023-02-28T10:26:37;6.30;91.60
24452;DHT22;13350;50.984;5.822;2023-02-28T10:29:07;6.70;91.80
24452;DHT22;13350;50.984;5.822;2023-02-28T10:31:35;6.40;90.50
24452;DHT22;13350;50.984;5.822;2023-02-28T10:34:02;6.20;89.80
24452;DHT22;13350;50.984;5.822;2023-02-28T10:36:33;6.70;87.60
24452;DHT22;13350;50.984;5.822;2023-02-28T10:39:38;7.20;87.00
24452;DHT22;13350;50.984;5.822;2023-02-28T10:42:20;7.30;85.30
24452;DHT22;13350;50.984;5.822;2023-02-28T10:45:06;7.10;83.20
24452;DHT22;13350;50.984;5.822;2023-02-28T10:47:34;7.20;83.10
24452;DHT22;13350;50.984;5.822;2023-02-28T10:50:05;6.90;81.40
24452;DHT22;13350;50.984;5.822;2023-02-28T10:52:39;7.20;76.90
24452;DHT22;13350;50.984;5.822;2023-02-28T10:55:20;7.20;78.50
24452;DHT22;13350;50.984;5.822;2023-02-28T10:57:49;6.60;79.00
24452;DHT22;13350;50.984;5.822;2023-02-28T11:00:18;7.00;78.50
24452;DHT22;13350;50.984;5.822;2023-02-28T11:02:48;6.70;78.20
24452;DHT22;13350;50.984;5.822;2023-02-28T11:05:30;5.80;79.80
24452;DHT22;13350;50.984;5.822;2023-02-28T11:08:04;6.10;80.90
24452;DHT22;13350;50.984;5.822;2023-02-28T11:10:33;6.20;81.10
24452;DHT22;13350;50.984;5.822;2023-02-28T11:13:01;6.50;83.00
24452;DHT22;13350;50.984;5.822;2023-02-28T11:15:30;6.80;78.60
24452;DHT22;13350;50.984;5.822;2023-02-28T11:18:01;7.20;78.80
24452;DHT22;13350;50.984;5.822;2023-02-28T11:20:30;6.90;79.00
24452;DHT22;13350;50.984;5.822;2023-02-28T11:23:02;6.80;81.40
24452;DHT22;13350;50.984;5.822;2023-02-28T11:25:32;6.30;78.30
24452;DHT22;13350;50.984;5.822;2023-02-28T11:28:02;6.80;83.20
24452;DHT22;13350;50.984;5.822;2023-02-28T11:30:35;6.90;78.30
24452;DHT22;13350;50.984;5.822;2023-02-28T11:33:20;6.70;78.40
24452;DHT22;13350;50.984;5.822;2023-02-28T11:35:49;6.10;78.90
24452;DHT22;13350;50.984;5.822;2023-02-28T11:38:18;6.50;79.40
24452;DHT22;13350;50.984;5.822;2023-02-28T11:40:51;7.10;78.10
24452;DHT22;13350;50.984;5.822;2023-02-28T11:43:34;6.90;77.10
24452;DHT22;13350;50.984;5.822;2023-02-28T11:46:18;6.60;79.30
24452;DHT22;13350;50.984;5.822;2023-02-28T11:48:53;7.20;75.80
24452;DHT22;13350;50.984;5.822;2023-02-28T11:51:26;7.50;79.30
24452;DHT22;13350;50.984;5.822;2023-02-28T11:57:03;8.30;72.90
24452;DHT22;13350;50.984;5.822;2023-02-28T11:59:53;7.50;73.60
24452;DHT22;13350;50.984;5.822;2023-02-28T12:02:26;7.30;73.30
24452;DHT22;13350;50.984;5.822;2023-02-28T12:05:12;7.70;74.90
24452;DHT22;13350;50.984;5.822;2023-02-28T12:07:50;8.10;73.40
24452;DHT22;13350;50.984;5.822;2023-02-28T12:10:26;8.00;73.30
24452;DHT22;13350;50.984;5.822;2023-02-28T12:13:06;6.80;74.90
24452;DHT22;13350;50.984;5.822;2023-02-28T12:16:01;7.20;76.80
24452;DHT22;13350;50.984;5.822;2023-02-28T12:18:48;7.00;77.20
24452;DHT22;13350;50.984;5.822;2023-02-28T12:21:28;7.30;75.30
24452;DHT22;13350;50.984;5.822;2023-02-28T12:24:14;7.60;76.40
24452;DHT22;13350;50.984;5.822;2023-02-28T12:26:45;7.90;76.10
24452;DHT22;13350;50.984;5.822;2023-02-28T12:29:16;7.40;77.30
24452;DHT22;13350;50.984;5.822;2023-02-28T12:31:49;7.70;78.80
24452;DHT22;13350;50.984;5.822;2023-02-28T12:34:21;7.50;76.60
24452;DHT22;13350;50.984;5.822;2023-02-28T12:36:51;8.00;77.20
24452;DHT22;13350;50.984;5.822;2023-02-28T12:39:23;7.80;74.70
24452;DHT22;13350;50.984;5.822;2023-02-28T12:41:58;7.60;74.50
24452;DHT22;13350;50.984;5.822;2023-02-28T12:44:32;7.10;75.70
24452;DHT22;13350;50.984;5.822;2023-02-28T12:47:03;5.80;77.20
24452;DHT22;13350;50.984;5.822;2023-02-28T12:49:33;6.10;76.50
24452;DHT22;13350;50.984;5.822;2023-02-28T12:52:03;6.80;78.10
24452;DHT22;13350;50.984;5.822;2023-02-28T12:54:35;7.10;76.80
24452;DHT22;13350;50.984;5.822;2023-02-28T12:57:12;7.10;79.70
24452;DHT22;13350;50.984;5.822;2023-02-28T12:59:48;7.80;76.20
24452;DHT22;13350;50.984;5.822;2023-02-28T13:05:37;8.20;75.30
24452;DHT22;13350;50.984;5.822;2023-02-28T13:08:27;7.70;76.00
24452;DHT22;13350;50.984;5.822;2023-02-28T13:11:03;7.30;78.40
24452;DHT22;13350;50.984;5.822;2023-02-28T13:13:32;6.50;79.60
24452;DHT22;13350;50.984;5.822;2023-02-28T13:16:03;6.70;78.00
24452;DHT22;13350;50.984;5.822;2023-02-28T13:18:34;7.20;77.20
24452;DHT22;13350;50.984;5.822;2023-02-28T13:21:03;7.20;75.30
24452;DHT22;13350;50.984;5.822;2023-02-28T13:23:59;7.00;76.20
24452;DHT22;13350;50.984;5.822;2023-02-28T13:29:34;6.80;78.60
24452;DHT22;13350;50.984;5.822;2023-02-28T13:38:31;6.30;77.10
24452;DHT22;13350;50.984;5.822;2023-02-28T13:44:06;7.70;76.20
24452;DHT22;13350;50.984;5.822;2023-02-28T13:46:38;8.10;79.10
24452;DHT22;13350;50.984;5.822;2023-02-28T13:49:25;7.90;78.20
24452;DHT22;13350;50.984;5.822;2023-02-28T13:52:00;7.40;78.60
24452;DHT22;13350;50.984;5.822;2023-02-28T13:54:37;7.60;79.30
24452;DHT22;13350;50.984;5.822;2023-02-28T13:57:19;6.70;81.70
24452;DHT22;13350;50.984;5.822;2023-02-28T14:00:00;7.00;80.00
24452;DHT22;13350;50.984;5.822;2023-02-28T14:02:49;7.40;81.20
24452;DHT22;13350;50.984;5.822;2023-02-28T14:05:21;7.00;82.00
24452;DHT22;13350;50.984;5.822;2023-02-28T14:07:56;7.20;81.00
24452;DHT22;13350;50.984;5.822;2023-02-28T14:10:27;7.50;76.30
24452;DHT22;13350;50.984;5.822;2023-02-28T14:13:00;7.50;81.40
24452;DHT22;13350;50.984;5.822;2023-02-28T14:15:49;7.40;80.50
24452;DHT22;13350;50.984;5.822;2023-02-28T14:18:22;7.50;77.70
24452;DHT22;13350;50.984;5.822;2023-02-28T14:20:54;7.80;76.00
24452;DHT22;13350;50.984;5.822;2023-02-28T14:23:45;7.60;78.30
24452;DHT22;13350;50.984;5.822;2023-02-28T14:26:32;7.50;78.00
24452;DHT22;13350;50.984;5.822;2023-02-28T14:29:19;7.70;79.70
24452;DHT22;13350;50.984;5.822;2023-02-28T14:31:58;8.40;77.80
24452;DHT22;13350;50.984;5.822;2023-02-28T14:34:48;8.10;77.00
24452;DHT22;13350;50.984;5.822;2023-02-28T14:37:23;7.70;76.50
24452;DHT22;13350;50.984;5.822;2023-02-28T14:39:53;8.00;76.30
24452;DHT22;13350;50.984;5.822;2023-02-28T14:42:32;8.40;76.30
24452;DHT22;13350;50.984;5.822;2023-02-28T14:45:00;8.00;75.70
24452;DHT22;13350;50.984;5.822;2023-02-28T14:47:30;7.90;75.20
24452;DHT22;13350;50.984;5.822;2023-02-28T14:50:00;7.70;75.60
24452;DHT22;13350;50.984;5.822;2023-02-28T14:52:30;7.80;77.80
24452;DHT22;13350;50.984;5.822;2023-02-28T14:55:00;8.10;77.90
24452;DHT22;13350;50.984;5.822;2023-02-28T14:57:29;7.80;78.70
24452;DHT22;13350;50.984;5.822;2023-02-28T15:00:09;7.80;77.80
24452;DHT22;13350;50.984;5.822;2023-02-28T15:02:39;7.90;76.60
24452;DHT22;13350;50.984;5.822;2023-02-28T15:05:27;7.50;78.60
24452;DHT22;13350;50.984;5.822;2023-02-28T15:08:05;7.10;78.00
24452;DHT22;13350;50.984;5.822;2023-02-28T15:10:33;7.20;76.50
24452;DHT22;13350;50.984;5.822;2023-02-28T15:13:02;7.10;79.30
24452;DHT22;13350;50.984;5.822;2023-02-28T15:15:40;6.80;79.90
24452;DHT22;13350;50.984;5.822;2023-02-28T15:18:14;6.70;80.20
24452;DHT22;13350;50.984;5.822;2023-02-28T15:20:44;6.70;82.10
24452;DHT22;13350;50.984;5.822;2023-02-28T15:23:12;6.30;80.90
24452;DHT22;13350;50.984;5.822;2023-02-28T15:25:40;5.90;84.70
24452;DHT22;13350;50.984;5.822;2023-02-28T15:28:14;5.50;85.00
24452;DHT22;13350;50.984;5.822;2023-02-28T15:30:52;5.30;87.80
24452;DHT22;13350;50.984;5.822;2023-02-28T15:33:21;5.20;86.80
24452;DHT22;13350;50.984;5.822;2023-02-28T15:35:51;5.00;86.90
24452;DHT22;13350;50.984;5.822;2023-02-28T15:38:22;5.00;88.20
24452;DHT22;13350;50.984;5.822;2023-02-28T15:40:52;5.00;87.80
24452;DHT22;13350;50.984;5.822;2023-02-28T15:43:26;4.90;88.70
24452;DHT22;13350;50.984;5.822;2023-02-28T15:45:57;4.90;89.70
24452;DHT22;13350;50.984;5.822;2023-02-28T15:48:27;4.90;88.70
24452;DHT22;13350;50.984;5.822;2023-02-28T15:51:01;4.90;88.90
24452;DHT22;13350;50.984;5.822;2023-02-28T15:53:33;4.90;90.20
24452;DHT22;13350;50.984;5.822;2023-02-28T15:56:04;4.90;90.40
24452;DHT22;13350;50.984;5.822;2023-02-28T15:58:33;4.80;90.30
24452;DHT22;13350;50.984;5.822;2023-02-28T16:01:08;4.80;90.00
24452;DHT22;13350;50.984;5.822;2023-02-28T16:03:45;4.70;90.00
24452;DHT22;13350;50.984;5.822;2023-02-28T16:06:38;4.70;90.90
24452;DHT22;13350;50.984;5.822;2023-02-28T16:09:10;4.60;90.00
24452;DHT22;13350;50.984;5.822;2023-02-28T16:11:40;4.60;90.40
24452;DHT22;13350;50.984;5.822;2023-02-28T16:14:15;4.70;90.50
24452;DHT22;13350;50.984;5.822;2023-02-28T16:16:45;4.70;91.40
24452;DHT22;13350;50.984;5.822;2023-02-28T16:19:12;4.60;91.40
24452;DHT22;13350;50.984;5.822;2023-02-28T16:21:41;4.70;91.30
24452;DHT22;13350;50.984;5.822;2023-02-28T16:24:08;4.60;91.10
24452;DHT22;13350;50.984;5.822;2023-02-28T16:26:36;4.70;91.30
24452;DHT22;13350;50.984;5.822;2023-02-28T16:29:06;4.70;92.10